createdAt,value
2023-04-18T00:00:10.841Z,4.70
2023-04-18T00:02:44.060Z,4.47
2023-04-18T00:05:12.492Z,5.10
2023-04-18T00:07:39.481Z,4.97
2023-04-18T00:10:07.232Z,4.47
2023-04-18T00:12:34.388Z,4.78
2023-04-18T00:15:03.103Z,5.57
2023-04-18T00:17:31.806Z,5.38
2023-04-18T00:19:58.844Z,5.38
2023-04-18T00:22:25.685Z,5.72
2023-04-18T00:24:52.454Z,5.45
2023-04-18T00:27:19.580Z,5.53
2023-04-18T00:29:47.123Z,5.75
2023-04-18T00:32:16.493Z,5.88
2023-04-18T00:34:43.151Z,5.03
2023-04-18T00:37:09.887Z,5.45
2023-04-18T00:39:36.811Z,5.95
2023-04-18T00:42:04.168Z,6.00
2023-04-18T00:44:31.822Z,5.97
2023-04-18T00:46:58.859Z,5.18
2023-04-18T00:49:26.970Z,5.75
2023-04-18T00:51:55.935Z,6.35
2023-04-18T00:54:24.548Z,6.88
2023-04-18T00:56:51.571Z,6.07
2023-04-18T00:59:19.127Z,6.78
2023-04-18T01:01:46.203Z,6.05
2023-04-18T01:04:13.495Z,5.43
2023-04-18T01:06:41.225Z,6.30
2023-04-18T01:09:08.097Z,6.93
2023-04-18T01:11:36.016Z,7.72
2023-04-18T01:14:04.610Z,7.00
2023-04-18T01:16:38.841Z,8.55
2023-04-18T01:19:06.046Z,7.07
2023-04-18T01:21:37.438Z,6.80
2023-04-18T01:24:08.129Z,6.97
2023-04-18T01:26:34.943Z,7.53
2023-04-18T01:29:05.006Z,7.70
2023-04-18T01:31:35.667Z,7.53
2023-04-18T01:34:03.598Z,8.50
2023-04-18T01:36:30.567Z,7.43
2023-04-18T01:38:57.796Z,8.48
2023-04-18T01:41:29.792Z,8.23
2023-04-18T01:43:56.634Z,8.50
2023-04-18T01:46:23.351Z,8.85
2023-04-18T01:48:50.299Z,9.35
2023-04-18T01:51:20.222Z,9.65
2023-04-18T01:53:50.207Z,9.38
2023-04-18T01:56:17.115Z,8.80
2023-04-18T01:58:44.061Z,9.02
2023-04-18T02:01:12.557Z,10.95
2023-04-18T02:03:40.125Z,9.85
2023-04-18T02:06:07.454Z,8.98
2023-04-18T02:08:35.976Z,9.15
2023-04-18T02:11:05.966Z,12.65
2023-04-18T02:13:32.957Z,10.18
2023-04-18T02:15:59.849Z,9.38
2023-04-18T02:18:29.309Z,9.25
2023-04-18T02:20:56.578Z,10.98
2023-04-18T02:23:23.316Z,16.05
2023-04-18T02:25:50.848Z,14.10
2023-04-18T02:28:20.169Z,10.85
2023-04-18T02:30:46.828Z,13.10
2023-04-18T02:33:13.604Z,9.82
2023-04-18T02:35:40.743Z,8.55
2023-04-18T02:38:09.013Z,10.20
2023-04-18T02:40:35.721Z,10.73
2023-04-18T02:43:04.990Z,10.23
2023-04-18T02:45:32.804Z,9.63
2023-04-18T02:48:01.429Z,10.30
2023-04-18T02:50:29.343Z,10.88
2023-04-18T02:52:57.318Z,12.02
2023-04-18T02:55:30.426Z,8.93
2023-04-18T02:57:59.696Z,12.23
2023-04-18T03:00:56.506Z,10.93
2023-04-18T03:03:41.695Z,8.68
2023-04-18T03:06:48.030Z,9.95
2023-04-18T03:09:16.272Z,11.95
2023-04-18T03:11:47.732Z,9.07
2023-04-18T03:14:18.023Z,10.10
2023-04-18T03:16:53.888Z,11.43
2023-04-18T03:19:26.537Z,8.85
2023-04-18T03:21:56.126Z,10.55
2023-04-18T03:24:22.830Z,8.07
2023-04-18T03:26:52.200Z,16.05
2023-04-18T03:29:22.338Z,10.40
2023-04-18T03:31:49.214Z,9.85
2023-04-18T03:34:16.062Z,13.80
2023-04-18T03:36:45.370Z,13.68
2023-04-18T03:39:15.126Z,12.93
2023-04-18T03:41:41.859Z,12.65
2023-04-18T03:44:11.205Z,9.52
2023-04-18T03:46:40.747Z,19.05
2023-04-18T03:49:08.954Z,11.13
2023-04-18T03:51:44.341Z,13.10
2023-04-18T03:54:11.253Z,16.17
2023-04-18T03:56:41.721Z,9.32
2023-04-18T03:59:11.153Z,9.07
2023-04-18T04:01:39.138Z,9.93
2023-04-18T04:04:06.239Z,10.85
2023-04-18T04:06:34.822Z,9.77
2023-04-18T04:09:01.587Z,12.65
2023-04-18T04:11:29.345Z,12.25
2023-04-18T04:13:56.054Z,10.23
2023-04-18T04:16:28.346Z,10.77
2023-04-18T04:18:55.914Z,12.63
2023-04-18T04:23:53.933Z,12.27
2023-04-18T04:26:27.967Z,9.25
2023-04-18T04:29:03.700Z,8.10
2023-04-18T04:31:32.497Z,10.43
2023-04-18T04:33:59.393Z,10.32
2023-04-18T04:36:28.518Z,10.30
2023-04-18T04:38:58.398Z,9.57
2023-04-18T04:41:32.932Z,12.25
2023-04-18T04:44:04.104Z,9.80
2023-04-18T04:46:36.843Z,10.63
2023-04-18T04:49:07.380Z,12.00
2023-04-18T04:51:34.322Z,10.02
2023-04-18T04:54:01.781Z,11.52
2023-04-18T04:56:28.712Z,13.25
2023-04-18T04:58:58.111Z,10.98
2023-04-18T05:01:31.205Z,11.50
2023-04-18T05:03:58.908Z,12.82
2023-04-18T05:06:25.859Z,10.95
2023-04-18T05:08:52.590Z,10.05
2023-04-18T05:11:19.251Z,9.05
2023-04-18T05:13:45.926Z,10.30
2023-04-18T05:16:19.740Z,11.70
2023-04-18T05:18:46.476Z,10.07
2023-04-18T05:21:14.271Z,12.07
2023-04-18T05:23:40.963Z,12.05
2023-04-18T05:26:07.660Z,11.60
2023-04-18T05:28:34.510Z,12.20
2023-04-18T05:31:01.328Z,11.27
2023-04-18T05:33:31.833Z,10.07
2023-04-18T05:35:59.455Z,11.10
2023-04-18T05:38:26.313Z,12.70
2023-04-18T05:40:55.530Z,13.35
2023-04-18T05:43:23.281Z,12.65
2023-04-18T05:45:52.345Z,12.45
2023-04-18T05:48:19.530Z,11.52
2023-04-18T05:50:46.264Z,14.20
2023-04-18T05:53:13.041Z,12.95
2023-04-18T05:55:41.028Z,11.93
2023-04-18T05:58:07.921Z,15.27
2023-04-18T06:00:35.393Z,13.20
2023-04-18T06:03:02.612Z,12.23
2023-04-18T06:05:29.881Z,15.45
2023-04-18T06:07:56.896Z,13.85
2023-04-18T06:10:23.742Z,13.25
2023-04-18T06:12:50.628Z,15.50
2023-04-18T06:15:17.434Z,14.93
2023-04-18T06:17:44.829Z,13.25
2023-04-18T06:20:11.806Z,13.75
2023-04-18T06:22:39.623Z,12.00
2023-04-18T06:25:08.754Z,13.55
2023-04-18T06:27:38.979Z,15.98
2023-04-18T06:30:07.747Z,13.73
2023-04-18T06:32:34.659Z,14.13
2023-04-18T06:35:01.525Z,12.32
2023-04-18T06:37:28.930Z,12.32
2023-04-18T06:39:55.679Z,13.18
2023-04-18T06:42:22.741Z,12.15
2023-04-18T06:44:50.214Z,16.20
2023-04-18T06:47:17.074Z,12.98
2023-04-18T06:49:43.797Z,14.48
2023-04-18T06:52:10.711Z,14.30
2023-04-18T06:54:37.461Z,15.27
2023-04-18T06:57:04.231Z,13.65
2023-04-18T06:59:31.045Z,14.18
2023-04-18T07:01:57.848Z,13.48
2023-04-18T07:04:24.894Z,12.27
2023-04-18T07:06:52.001Z,14.02
2023-04-18T07:09:18.957Z,13.35
2023-04-18T07:11:45.691Z,13.90
2023-04-18T07:14:12.672Z,13.60
2023-04-18T07:16:41.108Z,13.40
2023-04-18T07:19:10.133Z,12.43
2023-04-18T07:21:37.730Z,14.80
2023-04-18T07:24:04.650Z,14.13
2023-04-18T07:26:31.868Z,12.68
2023-04-18T07:28:58.552Z,14.40
2023-04-18T07:31:28.697Z,13.55
2023-04-18T07:33:55.614Z,13.13
2023-04-18T07:36:22.421Z,13.48
2023-04-18T07:38:49.478Z,13.80
2023-04-18T07:41:16.207Z,13.70
2023-04-18T07:43:44.902Z,13.75
2023-04-18T07:46:11.714Z,13.30
2023-04-18T07:48:38.457Z,12.90
2023-04-18T07:51:05.260Z,12.95
2023-04-18T07:53:31.949Z,13.25
2023-04-18T07:55:58.574Z,12.13
2023-04-18T07:58:25.400Z,12.25
2023-04-18T08:00:52.073Z,12.45
2023-04-18T08:03:18.984Z,11.35
2023-04-18T08:05:45.944Z,11.95
2023-04-18T08:08:12.881Z,12.15
2023-04-18T08:10:39.686Z,12.50
2023-04-18T08:13:07.020Z,10.52
2023-04-18T08:15:33.844Z,11.88
2023-04-18T08:18:01.091Z,11.43
2023-04-18T08:20:28.101Z,12.60
2023-04-18T08:25:24.616Z,10.90
2023-04-18T08:27:51.320Z,11.75
2023-04-18T08:30:18.173Z,12.32
2023-04-18T08:32:44.917Z,9.90
2023-04-18T08:35:11.783Z,10.25
2023-04-18T08:37:39.046Z,10.85
2023-04-18T08:40:07.381Z,11.57
2023-04-18T08:42:52.721Z,11.82
2023-04-18T08:45:20.140Z,12.20
2023-04-18T08:47:47.061Z,10.48
2023-04-18T08:50:14.004Z,12.07
2023-04-18T08:52:45.559Z,10.80
2023-04-18T08:55:12.283Z,10.95
2023-04-18T08:57:39.800Z,11.57
2023-04-18T09:00:10.506Z,10.98
2023-04-18T09:02:42.502Z,10.90
2023-04-18T09:05:21.128Z,10.90
2023-04-18T09:07:54.143Z,11.98
2023-04-18T09:10:31.612Z,11.77
2023-04-18T09:13:00.222Z,10.18
2023-04-18T09:15:29.187Z,10.65
2023-04-18T09:18:10.453Z,10.40
2023-04-18T09:20:41.289Z,10.43
2023-04-18T09:23:11.047Z,11.45
2023-04-18T09:25:48.854Z,12.48
2023-04-18T09:28:28.798Z,11.38
2023-04-18T09:30:57.867Z,10.85
2023-04-18T09:33:28.423Z,11.23
2023-04-18T09:35:57.391Z,9.77
2023-04-18T09:38:42.339Z,10.02
2023-04-18T09:41:13.000Z,11.10
2023-04-18T09:43:39.769Z,11.18
2023-04-18T09:46:11.922Z,10.55
2023-04-18T09:48:42.730Z,12.35
2023-04-18T09:51:11.607Z,11.43
2023-04-18T09:53:45.210Z,12.05
2023-04-18T09:56:33.304Z,11.27
2023-04-18T09:59:10.042Z,12.05
2023-04-18T10:01:37.268Z,11.57
2023-04-18T10:04:06.852Z,11.13
2023-04-18T10:06:35.013Z,11.98
2023-04-18T10:09:04.296Z,11.45
2023-04-18T10:11:32.268Z,11.85
2023-04-18T10:14:05.421Z,13.07
2023-04-18T10:16:34.191Z,11.48
2023-04-18T10:19:25.859Z,11.75
2023-04-18T10:21:57.514Z,10.85
2023-04-18T10:24:50.195Z,11.52
2023-04-18T10:27:17.909Z,10.18
2023-04-18T10:29:49.357Z,12.13
2023-04-18T10:32:18.263Z,9.95
2023-04-18T10:34:46.729Z,12.35
2023-04-18T10:37:13.588Z,12.10
2023-04-18T10:40:06.837Z,10.77
2023-04-18T10:42:48.519Z,10.80
2023-04-18T10:45:23.457Z,10.40
2023-04-18T10:47:51.603Z,10.43
2023-04-18T10:50:18.415Z,11.80
2023-04-18T10:52:45.210Z,11.93
2023-04-18T10:55:24.312Z,12.50
2023-04-18T10:57:51.585Z,12.68
2023-04-18T11:00:21.723Z,13.60
2023-04-18T11:02:51.576Z,12.32
2023-04-18T11:05:23.898Z,10.80
2023-04-18T11:07:50.870Z,12.05
2023-04-18T11:10:26.350Z,12.10
2023-04-18T11:12:54.731Z,12.23
2023-04-18T11:15:25.420Z,12.90
2023-04-18T11:17:58.071Z,10.43
2023-04-18T11:20:25.689Z,11.23
2023-04-18T11:22:54.421Z,10.75
2023-04-18T11:25:25.346Z,12.30
2023-04-18T11:27:52.105Z,12.57
2023-04-18T11:30:19.220Z,11.80
2023-04-18T11:32:46.312Z,12.77
2023-04-18T11:35:15.791Z,12.35
2023-04-18T11:37:45.494Z,12.07
2023-04-18T11:40:14.329Z,13.05
2023-04-18T11:42:41.975Z,11.95
2023-04-18T11:45:15.351Z,11.98
2023-04-18T11:47:43.300Z,11.60
2023-04-18T11:50:12.198Z,12.18
2023-04-18T11:52:41.472Z,13.30
2023-04-18T11:55:18.548Z,11.10
2023-04-18T11:57:52.703Z,10.45
2023-04-18T12:00:34.753Z,10.13
2023-04-18T12:03:04.609Z,10.60
2023-04-18T12:05:33.792Z,10.48
2023-04-18T12:08:13.919Z,9.13
2023-04-18T12:10:48.408Z,9.02
2023-04-18T12:13:15.233Z,7.03
2023-04-18T12:15:44.689Z,6.70
2023-04-18T12:18:13.180Z,6.65
2023-04-18T12:20:47.356Z,6.75
2023-04-18T12:23:45.992Z,6.78
2023-04-18T12:26:15.786Z,7.88
2023-04-18T12:28:45.658Z,7.32
2023-04-18T12:31:12.885Z,7.88
2023-04-18T12:33:39.698Z,7.00
2023-04-18T12:36:08.442Z,5.80
2023-04-18T12:38:36.019Z,6.45
2023-04-18T12:41:03.164Z,6.35
2023-04-18T12:43:29.993Z,6.70
2023-04-18T12:45:56.806Z,6.75
2023-04-18T12:48:23.585Z,7.70
2023-04-18T12:50:50.318Z,7.93
2023-04-18T12:53:17.229Z,7.30
2023-04-18T12:55:43.987Z,6.85
2023-04-18T12:58:10.708Z,7.00
2023-04-18T13:00:37.529Z,8.02
2023-04-18T13:03:04.890Z,8.65
2023-04-18T13:05:34.065Z,8.00
2023-04-18T13:10:31.551Z,7.07
2023-04-18T13:12:58.447Z,7.68
2023-04-18T13:15:26.150Z,6.90
2023-04-18T13:17:53.252Z,7.97
2023-04-18T13:20:20.064Z,6.60
2023-04-18T13:22:46.761Z,6.25
2023-04-18T13:25:13.506Z,5.75
2023-04-18T13:27:42.098Z,5.30
2023-04-18T13:30:11.032Z,6.88
2023-04-18T13:32:39.259Z,6.43
2023-04-18T13:35:10.504Z,6.03
2023-04-18T13:37:38.102Z,5.30
2023-04-18T13:40:06.496Z,4.85
2023-04-18T13:42:37.516Z,4.30
2023-04-18T13:45:04.593Z,5.47
2023-04-18T13:47:31.400Z,5.03
2023-04-18T13:49:58.387Z,5.32
2023-04-18T13:52:25.970Z,4.82
2023-04-18T13:54:53.191Z,5.22
2023-04-18T13:57:20.155Z,4.72
2023-04-18T13:59:47.458Z,4.40
2023-04-18T14:02:14.383Z,4.53
2023-04-18T14:04:44.169Z,4.15
2023-04-18T14:07:11.007Z,4.88
2023-04-18T14:09:40.668Z,4.72
2023-04-18T14:12:07.583Z,4.38
2023-04-18T14:14:34.260Z,4.85
2023-04-18T14:17:00.954Z,4.93
2023-04-18T14:19:27.694Z,4.43
2023-04-18T14:21:54.893Z,4.60
2023-04-18T14:24:21.609Z,5.88
2023-04-18T14:26:53.034Z,5.15
2023-04-18T14:29:19.737Z,3.95
2023-04-18T14:31:46.632Z,4.22
2023-04-18T14:34:13.476Z,4.40
2023-04-18T14:36:40.250Z,5.07
2023-04-18T14:39:07.201Z,5.00
2023-04-18T14:41:35.955Z,4.93
2023-04-18T14:44:04.050Z,4.53
2023-04-18T14:46:31.008Z,4.60
2023-04-18T14:48:57.970Z,4.65
2023-04-18T14:51:24.716Z,3.78
2023-04-18T14:53:51.466Z,4.90
2023-04-18T14:56:21.078Z,4.65
2023-04-18T14:58:48.048Z,4.75
2023-04-18T15:01:14.827Z,4.10
2023-04-18T15:03:41.717Z,4.78
2023-04-18T15:06:08.793Z,4.38
2023-04-18T15:08:36.038Z,4.20
2023-04-18T15:11:09.491Z,4.53
2023-04-18T15:13:36.421Z,4.68
2023-04-18T15:16:03.175Z,4.40
2023-04-18T15:18:30.375Z,5.13
2023-04-18T15:21:00.120Z,4.80
2023-04-18T15:23:27.560Z,4.50
2023-04-18T15:25:54.243Z,4.93
2023-04-18T15:28:21.110Z,8.65
2023-04-18T15:30:47.774Z,5.50
2023-04-18T15:33:15.661Z,5.22
2023-04-18T15:35:42.534Z,4.75
2023-04-18T15:38:09.281Z,4.95
2023-04-18T15:40:36.580Z,4.68
2023-04-18T15:43:04.136Z,4.65
2023-04-18T15:45:31.309Z,4.32
2023-04-18T15:47:58.443Z,4.25
2023-04-18T15:50:25.765Z,4.80
2023-04-18T15:52:52.543Z,4.80
2023-04-18T15:55:19.277Z,4.80
2023-04-18T15:57:46.431Z,4.85
2023-04-18T16:00:17.806Z,5.03
2023-04-18T16:02:45.231Z,5.30
2023-04-18T16:05:15.482Z,5.45
2023-04-18T16:07:42.929Z,5.43
2023-04-18T16:10:11.003Z,6.07
2023-04-18T16:12:39.338Z,5.35
2023-04-18T16:15:08.586Z,5.05
2023-04-18T16:17:38.977Z,5.13
2023-04-18T16:20:08.204Z,5.03
2023-04-18T16:22:35.037Z,4.88
2023-04-18T16:25:01.863Z,5.78
2023-04-18T16:27:28.573Z,4.55
2023-04-18T16:29:55.843Z,4.40
2023-04-18T16:32:22.683Z,5.03
2023-04-18T16:34:49.878Z,5.03
2023-04-18T16:37:16.563Z,5.13
2023-04-18T16:39:43.564Z,4.53
2023-04-18T16:42:10.261Z,5.32
2023-04-18T16:44:36.980Z,4.88
2023-04-18T16:47:05.132Z,4.65
2023-04-18T16:49:31.956Z,5.15
2023-04-18T16:51:58.580Z,4.97
2023-04-18T16:54:25.418Z,5.00
2023-04-18T16:56:52.138Z,5.07
2023-04-18T16:59:18.912Z,5.18
2023-04-18T17:01:45.739Z,5.75
2023-04-18T17:04:12.870Z,5.18
2023-04-18T17:06:42.174Z,5.28
2023-04-18T17:09:09.088Z,4.85
2023-04-18T17:11:39.637Z,4.28
2023-04-18T17:14:08.212Z,4.57
2023-04-18T17:16:40.462Z,5.40
2023-04-18T17:19:07.648Z,4.88
2023-04-18T17:21:36.539Z,6.07
2023-04-18T17:24:06.756Z,5.30
2023-04-18T17:26:34.714Z,4.95
2023-04-18T17:29:03.202Z,4.60
2023-04-18T17:31:33.442Z,5.03
2023-04-18T17:34:00.711Z,5.85
2023-04-18T17:36:27.812Z,4.20
2023-04-18T17:38:54.746Z,5.22
2023-04-18T17:41:21.938Z,5.20
2023-04-18T17:43:50.839Z,5.68
2023-04-18T17:46:17.769Z,5.22
2023-04-18T17:48:44.466Z,5.20
2023-04-18T17:51:11.171Z,5.50
2023-04-18T17:53:38.170Z,5.75
2023-04-18T17:56:05.448Z,4.93
2023-04-18T17:58:32.183Z,5.32
2023-04-18T18:00:59.065Z,6.03
2023-04-18T18:03:25.892Z,5.80
2023-04-18T18:05:54.904Z,6.00
2023-04-18T18:08:22.303Z,6.05
2023-04-18T18:10:49.817Z,5.63
2023-04-18T18:13:16.651Z,5.82
2023-04-18T18:15:43.358Z,6.90
2023-04-18T18:18:10.494Z,5.53
2023-04-18T18:20:38.140Z,6.40
2023-04-18T18:23:04.844Z,6.35
2023-04-18T18:25:31.750Z,5.85
2023-04-18T18:27:58.389Z,6.18
2023-04-18T18:30:25.246Z,6.07
2023-04-18T18:32:53.524Z,6.90
2023-04-18T18:35:20.719Z,6.80
2023-04-18T18:37:47.670Z,6.05
2023-04-18T18:40:14.610Z,6.78
2023-04-18T18:42:42.599Z,6.40
2023-04-18T18:45:09.916Z,6.30
2023-04-18T18:47:39.644Z,6.32
2023-04-18T18:50:07.705Z,6.03
2023-04-18T18:52:34.474Z,6.15
2023-04-18T18:55:01.613Z,7.43
2023-04-18T18:57:28.372Z,6.10
2023-04-18T18:59:55.984Z,6.75
2023-04-18T19:02:23.018Z,6.05
2023-04-18T19:04:49.977Z,5.65
2023-04-18T19:07:16.835Z,6.50
2023-04-18T19:09:43.660Z,5.97
2023-04-18T19:12:10.556Z,5.65
2023-04-18T19:14:37.396Z,6.40
2023-04-18T19:17:04.964Z,5.93
2023-04-18T19:19:31.713Z,6.70
2023-04-18T19:21:58.491Z,6.22
2023-04-18T19:24:26.727Z,6.95
2023-04-18T19:26:53.371Z,6.50
2023-04-18T19:29:22.382Z,6.10
2023-04-18T19:31:49.158Z,6.30
2023-04-18T19:34:18.891Z,6.15
2023-04-18T19:36:45.896Z,6.20
2023-04-18T19:39:12.887Z,6.53
2023-04-18T19:41:41.545Z,6.25
2023-04-18T19:44:08.268Z,6.20
2023-04-18T19:46:35.027Z,5.43
2023-04-18T19:49:01.964Z,5.72
2023-04-18T19:51:28.784Z,6.43
2023-04-18T19:53:55.687Z,6.60
2023-04-18T19:56:22.619Z,5.03
2023-04-18T19:58:49.534Z,5.97
2023-04-18T20:01:18.399Z,5.90
2023-04-18T20:03:45.388Z,5.93
2023-04-18T20:06:12.322Z,5.80
2023-04-18T20:08:47.634Z,5.47
2023-04-18T20:11:14.491Z,5.47
2023-04-18T20:13:41.635Z,5.93
2023-04-18T20:16:09.208Z,6.22
2023-04-18T20:18:41.315Z,5.15
2023-04-18T20:21:09.637Z,5.82
2023-04-18T20:23:36.841Z,5.07
2023-04-18T20:26:04.307Z,5.10
2023-04-18T20:28:31.881Z,4.70
2023-04-18T20:30:58.750Z,5.20
2023-04-18T20:33:25.582Z,4.72
2023-04-18T20:35:53.790Z,5.47
2023-04-18T20:38:25.770Z,5.82
2023-04-18T20:40:54.387Z,6.25
2023-04-18T20:43:21.382Z,6.53
2023-04-18T20:45:51.582Z,5.18
2023-04-18T20:48:18.711Z,5.97
2023-04-18T20:50:51.220Z,5.57
2023-04-18T20:53:22.486Z,5.50
2023-04-18T20:55:49.361Z,5.18
2023-04-18T20:58:16.236Z,5.78
2023-04-18T21:00:44.592Z,4.90
2023-04-18T21:03:15.933Z,5.22
2023-04-18T21:05:43.865Z,5.50
2023-04-18T21:08:13.361Z,6.57
2023-04-18T21:10:41.021Z,5.65
2023-04-18T21:13:09.181Z,5.60
2023-04-18T21:15:36.192Z,5.50
2023-04-18T21:18:03.065Z,6.45
2023-04-18T21:20:29.957Z,5.88
2023-04-18T21:22:56.596Z,6.22
2023-04-18T21:25:23.351Z,5.55
2023-04-18T21:27:50.895Z,6.40
2023-04-18T21:30:18.127Z,5.80
2023-04-18T21:32:45.869Z,4.93
2023-04-18T21:35:16.498Z,5.18
2023-04-18T21:37:47.891Z,5.80
2023-04-18T21:40:14.830Z,5.40
2023-04-18T21:42:41.767Z,5.40
2023-04-18T21:45:09.935Z,5.68
2023-04-18T21:47:36.688Z,5.15
2023-04-18T21:50:04.139Z,6.38
2023-04-18T21:52:30.843Z,6.82
2023-04-18T21:54:59.232Z,5.78
2023-04-18T21:57:25.971Z,6.43
2023-04-18T21:59:52.856Z,5.32
2023-04-18T22:02:19.620Z,5.80
2023-04-18T22:04:48.141Z,6.07
2023-04-18T22:07:18.787Z,6.20
2023-04-18T22:09:46.381Z,6.50
2023-04-18T22:12:14.523Z,5.97
2023-04-18T22:14:42.702Z,5.00
2023-04-18T22:17:10.003Z,6.85
2023-04-18T22:19:36.716Z,5.43
2023-04-18T22:22:03.391Z,5.82
2023-04-18T22:24:30.421Z,5.85
2023-04-18T22:26:57.197Z,5.60
2023-04-18T22:29:23.962Z,5.80
2023-04-18T22:31:50.881Z,6.28
2023-04-18T22:34:17.755Z,7.55
2023-04-18T22:36:47.552Z,6.30
2023-04-18T22:39:14.305Z,6.35
2023-04-18T22:41:40.986Z,6.38
2023-04-18T22:44:07.768Z,5.15
2023-04-18T22:46:35.000Z,5.70
2023-04-18T22:49:01.864Z,5.93
2023-04-18T22:51:29.021Z,6.95
2023-04-18T22:53:56.389Z,6.28
2023-04-18T22:56:23.428Z,6.63
2023-04-18T22:58:50.107Z,7.90
2023-04-18T23:01:17.063Z,6.43
2023-04-18T23:03:44.029Z,6.47
2023-04-18T23:06:11.048Z,7.05
2023-04-18T23:08:37.830Z,6.25
2023-04-18T23:11:04.556Z,6.20
2023-04-18T23:13:31.330Z,5.13
2023-04-18T23:15:58.087Z,4.95
2023-04-18T23:18:24.912Z,5.32
2023-04-18T23:20:51.677Z,5.40
2023-04-18T23:23:18.399Z,6.43
2023-04-18T23:25:45.194Z,5.53
2023-04-18T23:28:13.592Z,5.15
2023-04-18T23:30:40.326Z,5.10
2023-04-18T23:33:07.188Z,3.90
2023-04-18T23:35:34.131Z,4.43
2023-04-18T23:38:00.869Z,4.78
2023-04-18T23:40:27.608Z,4.18
2023-04-18T23:42:54.484Z,4.40
2023-04-18T23:45:21.204Z,4.32
2023-04-18T23:47:48.116Z,5.35
2023-04-18T23:50:14.905Z,5.55
2023-04-18T23:52:41.639Z,4.80
2023-04-18T23:55:08.791Z,4.20
2023-04-18T23:57:35.776Z,6.00
